.
WxDataArchive / Data Records for 2013-03-31
2013-03-30 March 2013 2013-04-01

Data Records for Sunday, 31 March 2013

Time	Temp	Chill	HIndex	Humid	Dewpt	 Wind 	HiWind	WindDir	Rain 	Barom 
-----	----	-----	------	-----	-----	------	------	-------	-----	----- 
00:00	40.5	40.5	40.5	71	31.8	0	1	112	0.00	29.923 
00:05	40.3	40.3	40.3	72	32.0	0	0	---	0.00	29.923 
00:10	40.1	40.1	40.1	73	32.2	0	0	---	0.00	29.923 
00:15	39.9	39.9	39.9	74	32.3	0	0	---	0.00	29.919 
00:20	39.8	39.8	39.8	74	32.2	0	0	---	0.00	29.919 
00:25	39.6	39.6	39.6	75	32.3	0	0	---	0.00	29.919 
00:30	39.6	39.6	39.6	77	33.0	0	0	---	0.00	29.912 
00:35	39.5	39.5	39.5	77	32.9	0	0	---	0.00	29.912 
00:40	39.3	39.3	39.3	77	32.7	0	0	---	0.00	29.912 
00:45	39.2	39.2	39.2	78	32.9	0	0	---	0.00	29.902 
00:50	38.9	38.9	38.9	78	32.6	0	0	---	0.00	29.902 
00:55	38.8	38.8	38.8	79	32.9	0	0	---	0.00	29.902 
01:00	38.6	38.6	38.6	80	33.0	0	0	---	0.00	29.890 
01:05	38.6	38.6	38.6	80	33.0	0	0	---	0.00	29.890 
01:10	38.6	38.6	38.6	81	33.3	0	0	---	0.00	29.890 
01:15	38.6	38.6	38.6	81	33.3	0	0	---	0.00	29.885 
01:20	38.6	38.6	38.6	81	33.3	0	0	---	0.00	29.885 
01:25	38.5	38.5	38.5	81	33.2	0	0	---	0.00	29.885 
01:30	38.5	38.5	38.5	80	32.9	0	0	---	0.00	29.879 
01:35	38.5	38.5	38.5	80	32.9	0	0	---	0.00	29.879 
01:40	38.3	38.3	38.3	80	32.7	0	0	---	0.00	29.879 
01:45	38.2	38.2	38.2	80	32.6	0	0	---	0.00	29.871 
01:50	38.2	38.2	38.2	80	32.6	0	0	---	0.00	29.871 
01:55	38.0	38.0	38.0	81	32.7	0	0	---	0.00	29.871 
02:00	37.9	37.9	37.9	81	32.6	0	0	---	0.00	29.867 
02:05	37.8	37.8	37.8	81	32.5	0	0	---	0.00	29.867 
02:10	37.6	37.6	37.6	81	32.3	0	0	---	0.00	29.867 
02:15	37.6	37.6	37.6	81	32.3	0	0	---	0.00	29.855 
02:20	37.5	37.5	37.5	81	32.2	0	0	---	0.00	29.855 
02:25	37.5	37.5	37.5	81	32.2	0	0	---	0.00	29.855 
02:30	37.5	37.5	37.5	81	32.2	0	0	---	0.00	29.853 
02:35	37.5	37.5	37.5	81	32.2	0	0	---	0.00	29.853 
02:40	37.5	37.5	37.5	81	32.2	0	0	---	0.00	29.853 
02:45	37.5	37.5	37.5	81	32.2	0	0	---	0.00	29.844 
02:50	37.6	37.6	37.6	82	32.6	0	0	---	0.00	29.844 
02:55	37.6	37.6	37.6	82	32.6	0	0	---	0.00	29.844 
03:00	37.6	37.6	37.6	82	32.6	0	0	---	0.00	29.837 
03:05	37.8	37.8	37.8	82	32.8	0	0	---	0.00	29.837 
03:10	37.9	37.9	37.9	82	32.9	0	0	---	0.00	29.837 
03:15	38.2	38.2	38.2	82	33.2	0	0	---	0.00	29.830 
03:20	38.3	38.3	38.3	81	33.0	0	0	---	0.00	29.830 
03:25	38.3	38.3	38.3	81	33.0	0	0	---	0.00	29.830 
03:30	38.5	38.5	38.5	81	33.2	0	0	---	0.00	29.823 
03:35	38.6	38.6	38.6	81	33.3	0	0	---	0.00	29.823 
03:40	38.8	38.8	38.8	81	33.5	0	0	---	0.00	29.823 
03:45	39.1	39.1	39.1	81	33.8	0	0	---	0.00	29.816 
03:50	39.2	39.2	39.2	81	33.9	0	0	---	0.00	29.816 
03:55	39.3	39.3	39.3	80	33.7	0	0	---	0.00	29.816 
04:00	39.5	39.5	39.5	80	33.9	0	0	---	0.00	29.809 
04:05	39.6	39.6	39.6	80	33.9	0	0	---	0.00	29.809 
04:10	39.9	39.9	39.9	79	33.9	0	0	---	0.00	29.809 
04:15	40.1	40.1	40.1	79	34.1	0	0	---	0.00	29.805 
04:20	40.3	40.3	40.3	79	34.3	0	1	112	0.00	29.805 
04:25	40.6	40.6	40.6	78	34.3	0	0	---	0.00	29.805 
04:30	40.9	40.9	40.9	77	34.3	0	0	---	0.00	29.799 
04:35	41.2	41.2	41.2	77	34.5	0	0	---	0.00	29.799 
04:40	41.5	41.5	41.5	77	34.8	0	0	---	0.00	29.799 
04:45	41.5	41.5	41.5	76	34.5	0	0	---	0.00	29.793 
04:50	41.6	41.6	41.6	75	34.3	0	0	---	0.00	29.793 
04:55	41.6	41.6	41.6	75	34.3	0	0	---	0.00	29.793 
05:00	41.8	41.8	41.8	75	34.5	0	0	---	0.00	29.788 
05:05	41.8	41.8	41.8	75	34.5	0	0	---	0.00	29.788 
05:10	41.8	41.8	41.8	75	34.5	0	0	---	0.00	29.788 
05:15	41.8	41.8	41.8	75	34.5	0	0	---	0.00	29.778 
05:20	41.8	41.8	41.8	75	34.5	0	0	---	0.00	29.778 
05:25	41.8	41.8	41.8	75	34.5	0	0	---	0.00	29.778 
05:30	41.8	41.8	41.8	75	34.5	0	0	---	0.00	29.773 
05:35	41.8	41.8	41.8	74	34.1	0	0	---	0.00	29.773 
05:40	41.6	41.6	41.6	74	33.9	0	1	112	0.00	29.773 
05:45	41.6	41.6	41.6	74	33.9	0	1	112	0.00	29.773 
05:50	41.8	41.8	41.8	75	34.5	0	0	---	0.00	29.773 
05:55	41.8	41.8	41.8	74	34.1	0	0	---	0.00	29.773 
06:00	41.9	41.9	41.9	74	34.2	0	0	---	0.00	29.771 
06:05	42.1	42.1	42.1	74	34.4	0	0	---	0.00	29.771 
06:10	42.2	42.2	42.2	74	34.5	0	0	---	0.00	29.771 
06:15	42.2	42.2	42.2	74	34.5	0	0	---	0.00	29.764 
06:20	42.3	42.3	42.3	74	34.6	0	1	112	0.00	29.764 
06:25	42.5	42.5	42.5	74	34.8	0	1	112	0.00	29.764 
06:30	42.6	42.6	42.6	73	34.6	0	1	112	0.00	29.764 
06:35	42.9	42.9	42.9	73	34.9	0	2	112	0.00	29.764 
06:40	43.3	43.3	43.3	72	34.9	0	1	112	0.00	29.764 
06:45	43.6	43.6	43.6	72	35.2	0	2	202	0.00	29.766 
06:50	43.9	43.9	43.9	72	35.5	0	2	202	0.00	29.766 
06:55	44.3	44.3	44.3	72	35.9	0	3	202	0.00	29.766 
07:00	44.6	44.6	44.6	72	36.1	0	3	248	0.00	29.764 
07:05	45.1	45.1	45.1	72	36.6	1	5	248	0.00	29.764 
07:10	45.5	45.5	45.5	72	37.0	1	4	248	0.00	29.764 
07:15	45.8	45.8	45.8	71	36.9	2	5	248	0.00	29.770 
07:20	46.0	46.0	46.0	71	37.1	1	4	248	0.00	29.770 
07:25	46.0	46.0	46.0	72	37.5	1	4	248	0.00	29.770 
07:30	46.0	46.0	46.0	72	37.5	1	4	248	0.00	29.765 
07:35	46.0	46.0	46.0	72	37.5	1	4	248	0.00	29.765 
07:40	46.1	46.1	46.1	72	37.6	1	6	248	0.00	29.765 
07:45	46.1	46.1	46.1	73	37.9	0	3	248	0.00	29.763 
07:50	46.1	46.1	46.1	73	37.9	1	4	248	0.00	29.763 
07:55	46.1	46.1	46.1	74	38.3	1	4	248	0.00	29.763 
08:00	46.1	46.1	46.1	74	38.3	1	3	248	0.00	29.763 
08:05	46.1	46.1	46.1	74	38.3	0	2	248	0.00	29.763 
08:10	46.1	46.1	46.1	75	38.6	0	2	248	0.00	29.763 
08:15	46.2	46.2	46.2	75	38.7	1	5	248	0.00	29.764 
08:20	46.2	46.2	46.2	76	39.1	1	5	248	0.00	29.764 
08:25	46.2	46.2	46.2	77	39.4	1	3	248	0.00	29.764 
08:30	46.4	46.4	46.4	78	39.9	1	4	248	0.00	29.764 
08:35	46.4	46.4	46.4	78	39.9	1	5	248	0.00	29.764 
08:40	46.4	46.4	46.4	79	40.2	1	5	248	0.00	29.764 
08:45	46.4	46.4	46.4	79	40.2	1	4	248	0.00	29.766 
08:50	46.4	46.4	46.4	80	40.6	1	5	248	0.00	29.766 
08:55	46.4	46.4	46.4	81	40.9	1	4	225	0.00	29.766 
09:00	46.2	46.2	46.2	81	40.7	0	2	225	0.00	29.762 
09:05	46.2	46.2	46.2	81	40.7	1	4	248	0.00	29.762 
09:10	46.2	46.2	46.2	82	41.0	2	5	248	0.00	29.762 
09:15	46.2	46.2	46.2	82	41.0	2	7	248	0.00	29.760 
09:20	46.1	46.1	46.1	83	41.2	1	3	248	0.00	29.760 
09:25	46.0	46.0	46.0	84	41.4	1	4	248	0.00	29.760 
09:30	45.8	45.8	45.8	84	41.2	2	5	248	0.00	29.760 
09:35	45.7	45.7	45.7	85	41.5	1	2	248	0.00	29.760 
09:40	45.7	45.7	45.7	86	41.8	1	3	248	0.00	29.760 
09:45	45.7	45.7	45.7	86	41.8	1	4	248	0.00	29.759 
09:50	45.5	45.5	45.5	87	41.9	1	3	248	0.00	29.759 
09:55	45.5	45.5	45.5	87	41.9	1	4	248	0.00	29.759 
10:00	45.5	45.5	45.5	88	42.2	1	3	248	0.00	29.756 
10:05	45.5	45.5	45.5	88	42.2	1	3	248	0.00	29.756 
10:10	45.7	45.7	45.7	88	42.4	1	4	248	0.00	29.756 
10:15	45.5	45.5	45.5	88	42.2	1	4	248	0.00	29.758 
10:20	45.7	45.7	45.7	88	42.4	0	3	248	0.00	29.758 
10:25	45.7	45.7	45.7	88	42.4	1	3	248	0.00	29.758 
10:30	45.7	45.7	45.7	88	42.4	1	3	248	0.00	29.756 
10:35	45.7	45.7	45.7	88	42.4	1	5	248	0.00	29.756 
10:40	45.8	45.8	45.8	89	42.7	1	6	248	0.00	29.756 
10:45	45.8	45.8	45.8	89	42.7	1	4	248	0.00	29.750 
10:50	46.0	46.0	46.0	89	42.9	1	5	248	0.00	29.750 
10:55	46.0	46.0	46.0	88	42.6	1	5	248	0.00	29.750 
11:00	46.0	46.0	46.0	88	42.6	1	3	248	0.00	29.760 
11:05	46.0	46.0	46.0	88	42.6	1	4	248	0.00	29.760 
11:10	45.8	45.8	45.8	88	42.5	2	6	248	0.00	29.760 
11:15	45.8	45.8	45.8	89	42.7	2	6	248	0.00	29.765 
11:20	45.8	45.8	45.8	89	42.7	2	4	248	0.00	29.765 
11:25	45.8	45.8	45.8	89	42.7	2	5	248	0.00	29.765 
11:30	45.8	45.8	45.8	90	43.0	2	6	248	0.00	29.765 
11:35	45.8	45.8	45.8	90	43.0	2	7	248	0.00	29.765 
11:40	46.0	46.0	46.0	90	43.2	1	4	248	0.00	29.765 
11:45	46.2	46.2	46.2	90	43.4	1	5	248	0.00	29.764 
11:50	46.4	46.4	46.4	90	43.6	1	4	248	0.00	29.764 
11:55	47.1	47.1	47.1	89	44.0	1	5	248	0.00	29.764 
12:00	47.7	47.7	47.7	88	44.3	1	4	248	0.00	29.762 
12:05	48.3	48.3	48.3	87	44.6	3	5	248	0.00	29.762 
12:10	48.9	48.9	48.9	84	44.3	2	5	248	0.00	29.762 
12:15	49.5	49.5	49.5	82	44.2	2	5	248	0.00	29.763 
12:20	49.8	49.8	49.8	80	43.9	2	4	248	0.00	29.763 
12:25	50.2	50.2	50.2	79	43.9	1	4	248	0.00	29.763 
12:30	50.4	50.4	50.4	78	43.8	1	5	248	0.00	29.763 
12:35	50.8	50.8	50.8	75	43.2	2	4	248	0.00	29.763 
12:40	51.6	51.6	51.6	73	43.2	3	7	248	0.00	29.763 
12:45	52.2	52.2	52.2	70	42.7	2	5	248	0.00	29.747 
12:50	52.8	52.8	52.8	67	42.1	2	6	248	0.00	29.747 
12:55	53.3	53.3	53.3	64	41.4	2	6	248	0.00	29.747 
13:00	53.9	53.9	53.9	60	40.3	3	5	248	0.00	29.744 
13:05	53.6	53.6	53.6	59	39.6	3	7	270	0.00	29.744 
13:10	53.8	53.8	53.8	60	40.2	3	6	292	0.00	29.744 
13:15	54.4	54.4	54.4	58	39.9	2	7	248	0.00	29.743 
13:20	54.8	54.8	54.8	56	39.4	2	9	248	0.00	29.743 
13:25	55.3	55.3	55.3	56	39.9	2	4	248	0.00	29.743 
13:30	55.7	55.7	55.7	54	39.3	2	5	248	0.00	29.735 
13:35	55.9	55.9	55.9	53	39.0	2	6	248	0.00	29.735 
13:40	56.3	56.3	56.3	53	39.4	2	6	270	0.00	29.735 
13:45	56.5	56.5	56.5	51	38.6	2	4	270	0.00	29.728 
13:50	56.9	56.9	56.9	51	39.0	1	4	248	0.00	29.728 
13:55	57.3	57.3	57.3	48	37.8	2	5	248	0.00	29.728 
14:00	57.2	57.2	57.2	46	36.6	3	6	248	0.00	29.726 
14:05	57.2	57.2	57.2	47	37.2	2	5	248	0.00	29.726 
14:10	57.3	57.3	57.3	45	36.1	2	4	292	0.00	29.726 
14:15	57.5	57.5	57.5	45	36.3	2	5	270	0.00	29.719 
14:20	57.8	57.8	57.8	44	36.0	3	7	248	0.00	29.719 
14:25	58.0	58.0	58.0	44	36.2	2	5	248	0.00	29.719 
14:30	58.1	58.1	58.1	46	37.4	2	7	248	0.00	29.712 
14:35	58.4	58.4	58.4	45	37.1	4	9	248	0.00	29.712 
14:40	57.8	57.8	57.8	44	36.0	3	7	248	0.00	29.712 
14:45	58.0	58.0	58.0	46	37.3	2	4	248	0.00	29.710 
14:50	58.6	58.6	58.6	44	36.8	3	6	248	0.00	29.710 
14:55	59.0	59.0	59.0	45	37.7	3	7	248	0.00	29.710 
15:00	59.3	59.3	59.3	43	36.8	2	5	248	0.00	29.706 
15:05	59.9	59.9	59.9	43	37.3	3	6	248	0.00	29.706 
15:10	59.5	59.5	59.5	42	36.4	2	7	248	0.00	29.706 
15:15	59.6	59.6	59.6	44	37.7	2	6	248	0.00	29.695 
15:20	59.8	59.8	59.8	41	36.1	2	7	248	0.00	29.695 
15:25	59.6	59.6	59.6	41	35.9	2	9	248	0.00	29.695 
15:30	59.5	59.5	59.5	39	34.5	3	9	248	0.00	29.697 
15:35	59.3	59.3	59.3	39	34.3	3	9	248	0.00	29.697 
15:40	59.5	59.5	59.5	37	33.2	3	10	248	0.00	29.697 
15:45	59.2	59.2	59.2	41	35.5	2	4	248	0.00	29.693 
15:50	58.6	58.6	58.6	43	36.2	2	6	248	0.00	29.693 
15:55	58.9	58.9	58.9	41	35.2	3	9	248	0.00	29.693 
16:00	59.3	59.3	59.3	40	35.0	3	5	248	0.00	29.690 
16:05	60.1	60.1	60.1	39	35.1	3	6	248	0.00	29.690 
16:10	60.2	60.2	60.2	37	33.8	3	9	270	0.00	29.690 
16:15	59.6	59.6	59.6	39	34.6	3	7	248	0.00	29.688 
16:20	59.2	59.2	59.2	40	34.9	2	7	248	0.00	29.688 
16:25	59.5	59.5	59.5	35	31.8	4	11	248	0.00	29.688 
16:30	59.0	59.0	59.0	36	32.1	3	7	248	0.00	29.681 
16:35	59.3	59.3	59.3	38	33.7	3	6	248	0.00	29.681 
16:40	59.0	59.0	59.0	37	32.8	3	7	248	0.00	29.681 
16:45	58.9	58.9	58.9	36	32.0	2	6	248	0.00	29.679 
16:50	59.0	59.0	59.0	37	32.8	3	11	248	0.00	29.679 
16:55	59.0	59.0	59.0	37	32.8	2	5	248	0.00	29.679 
17:00	58.9	58.9	58.9	35	31.3	3	7	248	0.00	29.677 
17:05	58.7	58.7	58.7	37	32.5	3	7	270	0.00	29.677 
17:10	58.7	58.7	58.7	37	32.5	2	6	248	0.00	29.677 
17:15	58.6	58.6	58.6	37	32.4	3	7	270	0.00	29.676 
17:20	58.7	58.7	58.7	37	32.5	4	9	248	0.00	29.676 
17:25	58.4	58.4	58.4	37	32.2	3	7	248	0.00	29.676 
17:30	58.1	58.1	58.1	37	32.0	3	7	248	0.00	29.674 
17:35	58.1	58.1	58.1	38	32.6	3	5	248	0.00	29.674 
17:40	58.1	58.1	58.1	38	32.6	3	7	270	0.00	29.674 
17:45	58.0	58.0	58.0	38	32.5	3	7	248	0.00	29.673 
17:50	57.8	57.8	57.8	38	32.4	4	12	248	0.00	29.673 
17:55	57.5	57.5	57.5	40	33.4	4	10	248	0.00	29.673 
18:00	57.2	57.2	57.2	40	33.1	2	5	270	0.00	29.673 
18:05	57.0	57.0	57.0	41	33.5	2	4	248	0.00	29.673 
18:10	57.0	57.0	57.0	40	32.9	2	7	248	0.00	29.673 
18:15	57.5	57.5	57.5	39	32.7	3	8	248	0.00	29.673 
18:20	57.3	57.3	57.3	38	31.9	3	7	270	0.00	29.673 
18:25	57.2	57.2	57.2	38	31.8	3	6	248	0.00	29.673 
18:30	57.0	57.0	57.0	39	32.3	2	4	248	0.00	29.672 
18:35	57.3	57.3	57.3	39	32.6	1	5	248	0.00	29.672 
18:40	57.8	57.8	57.8	39	33.0	2	7	248	0.00	29.672 
18:45	57.6	57.6	57.6	39	32.8	3	8	248	0.00	29.673 
18:50	57.2	57.2	57.2	40	33.1	3	9	248	0.00	29.673 
18:55	56.7	56.7	56.7	42	33.9	4	11	248	0.00	29.673 
19:00	56.2	56.2	56.2	44	34.6	5	10	248	0.00	29.678 
19:05	55.7	55.7	55.7	47	35.8	3	7	248	0.00	29.678 
19:10	55.4	55.4	55.4	49	36.6	3	9	248	0.00	29.678 
19:15	54.8	54.8	54.8	49	36.0	3	8	248	0.00	29.682 
19:20	54.5	54.5	54.5	50	36.2	2	5	248	0.00	29.682 
19:25	54.2	54.2	54.2	50	36.0	1	5	248	0.00	29.682 
19:30	54.1	54.1	54.1	51	36.4	1	6	225	0.00	29.679 
19:35	54.1	54.1	54.1	50	35.9	2	5	248	0.00	29.679 
19:40	54.1	54.1	54.1	49	35.4	1	5	248	0.00	29.679 
19:45	54.2	54.2	54.2	48	34.9	2	6	248	0.00	29.683 
19:50	54.5	54.5	54.5	47	34.7	2	7	248	0.00	29.683 
19:55	54.8	54.8	54.8	45	33.9	3	7	248	0.00	29.683 
20:00	54.8	54.8	54.8	45	33.9	2	5	248	0.00	29.688 
20:05	54.7	54.7	54.7	44	33.2	2	4	248	0.00	29.688 
20:10	54.5	54.5	54.5	44	33.0	1	3	270	0.00	29.688 
20:15	54.2	54.2	54.2	45	33.3	1	4	248	0.00	29.689 
20:20	54.1	54.1	54.1	46	33.8	2	5	248	0.00	29.689 
20:25	53.8	53.8	53.8	46	33.5	1	3	248	0.00	29.689 
20:30	53.8	53.8	53.8	47	34.0	2	4	248	0.00	29.688 
20:35	53.6	53.6	53.6	47	33.9	1	5	248	0.00	29.688 
20:40	53.5	53.5	53.5	47	33.8	1	3	248	0.00	29.688 
20:45	53.3	53.3	53.3	48	34.1	1	3	248	0.00	29.692 
20:50	53.2	53.2	53.2	48	34.0	1	3	270	0.00	29.692 
20:55	53.2	53.2	53.2	48	34.0	1	4	248	0.00	29.692 
21:00	53.2	53.2	53.2	48	34.0	2	4	248	0.00	29.697 
21:05	53.3	53.3	53.3	45	32.5	2	6	248	0.00	29.697 
21:10	53.5	53.5	53.5	43	31.6	3	5	248	0.00	29.697 
21:15	53.6	53.6	53.6	43	31.7	3	6	270	0.00	29.702 
21:20	53.8	53.8	53.8	42	31.3	3	6	248	0.00	29.702 
21:25	53.6	53.6	53.6	40	29.9	3	6	248	0.00	29.702 
21:30	53.5	53.5	53.5	40	29.8	3	7	248	0.00	29.707 
21:35	53.2	53.2	53.2	40	29.5	2	7	248	0.00	29.707 
21:40	52.9	52.9	52.9	39	28.6	2	5	248	0.00	29.707 
21:45	52.6	52.6	52.6	39	28.4	3	6	248	0.00	29.717 
21:50	51.6	51.6	51.6	43	29.8	5	10	292	0.00	29.717 
21:55	50.4	50.4	50.4	45	29.9	4	10	338	0.00	29.717 
22:00	49.8	49.8	49.8	46	29.9	3	9	315	0.00	29.730 
22:05	49.2	49.2	49.2	47	29.8	3	6	315	0.00	29.730 
22:10	48.8	48.8	48.8	49	30.5	2	7	292	0.00	29.730 
22:15	48.2	48.2	48.2	50	30.4	3	10	292	0.00	29.745 
22:20	47.7	47.7	47.7	51	30.5	3	7	315	0.00	29.745 
22:25	47.3	47.3	47.3	52	30.6	3	10	292	0.00	29.745 
22:30	47.0	47.0	47.0	53	30.8	3	13	292	0.00	29.750 
22:35	46.5	46.5	46.5	54	30.8	3	6	315	0.00	29.750 
22:40	46.2	46.2	46.2	55	30.9	2	6	338	0.00	29.750 
22:45	45.8	45.8	45.8	57	31.4	3	9	315	0.00	29.764 
22:50	45.5	45.5	45.5	57	31.2	3	6	338	0.00	29.764 
22:55	45.1	45.1	45.1	58	31.2	3	6	248	0.00	29.764 
23:00	44.8	44.8	44.8	59	31.4	2	4	315	0.00	29.775 
23:05	44.2	44.2	44.2	60	31.2	3	9	292	0.00	29.775 
23:10	43.8	43.8	43.8	62	31.6	3	11	315	0.00	29.775 
23:15	43.3	41.1	43.3	61	30.8	4	11	315	0.00	29.778 
23:20	42.9	42.9	42.9	62	30.8	2	6	270	0.00	29.778 
23:25	42.5	42.5	42.5	63	30.8	2	7	270	0.00	29.778 
23:30	42.1	42.1	42.1	63	30.4	2	6	315	0.00	29.784 
23:35	41.8	41.8	41.8	64	30.5	1	3	270	0.00	29.784 
23:40	41.3	41.3	41.3	62	29.3	2	8	0	0.00	29.784 
23:45	40.9	40.9	40.9	61	28.5	2	6	315	0.00	29.788 
23:50	40.6	40.6	40.6	61	28.2	1	4	338	0.00	29.788 
23:55	40.3	40.3	40.3	61	27.9	2	4	292	0.00	29.788 

CoCoRaHS
IN-AL-39
A2 Web Hosting
Creative Commons License
GoDaddy
search engine by freefind advanced

loaded 2018-11-19 11:43:31 • last modified 2010-11-18 10:43:29
Privacy PolicyDisclaimer
• wx.awcolley.com is powered by PmWiki v.2002016 •
• all content (unless otherwise noted) © 2018 A W Colley